createdAt,value
2023-02-24T00:02:03.012Z,10.22
2023-02-24T00:04:37.229Z,10.85
2023-02-24T00:07:08.655Z,10.45
2023-02-24T00:09:38.083Z,9.98
2023-02-24T00:12:09.259Z,9.94
2023-02-24T00:14:39.784Z,10.16
2023-02-24T00:17:10.271Z,10.38
2023-02-24T00:19:39.062Z,10.64
2023-02-24T00:22:09.708Z,10.69
2023-02-24T00:24:38.473Z,11.08
2023-02-24T00:27:11.420Z,11.01
2023-02-24T00:29:40.892Z,10.71
2023-02-24T00:32:13.446Z,10.87
2023-02-24T00:34:41.935Z,10.98
2023-02-24T00:37:11.208Z,10.90
2023-02-24T00:39:41.885Z,10.89
2023-02-24T00:42:12.348Z,10.70
2023-02-24T00:44:42.890Z,10.87
2023-02-24T00:47:14.131Z,10.31
2023-02-24T00:49:43.413Z,10.52
2023-02-24T00:52:13.654Z,10.51
2023-02-24T00:54:42.278Z,10.82
2023-02-24T00:57:10.672Z,10.46
2023-02-24T00:59:39.230Z,10.49
2023-02-24T01:02:08.029Z,10.50
2023-02-24T01:04:38.684Z,10.82
2023-02-24T01:07:11.036Z,10.81
2023-02-24T01:09:43.935Z,10.78
2023-02-24T01:12:33.452Z,10.83
2023-02-24T01:15:05.050Z,10.75
2023-02-24T01:17:33.422Z,10.99
2023-02-24T01:20:15.853Z,10.49
2023-02-24T01:22:45.009Z,10.54
2023-02-24T01:25:13.491Z,10.70
2023-02-24T01:27:42.622Z,10.98
2023-02-24T01:30:15.661Z,10.68
2023-02-24T01:32:44.734Z,10.76
2023-02-24T01:35:15.081Z,10.96
2023-02-24T01:37:45.061Z,10.73
2023-02-24T01:40:18.917Z,11.20
2023-02-24T01:42:50.664Z,11.18
2023-02-24T01:45:23.089Z,10.57
2023-02-24T01:47:52.716Z,10.69
2023-02-24T01:50:26.027Z,10.28
2023-02-24T01:52:58.241Z,10.79
2023-02-24T01:55:31.961Z,11.24
2023-02-24T01:58:02.987Z,10.80
2023-02-24T02:00:38.409Z,11.06
2023-02-24T02:03:12.552Z,11.17
2023-02-24T02:05:49.341Z,10.98
2023-02-24T02:08:19.825Z,10.77
2023-02-24T02:10:49.420Z,10.63
2023-02-24T02:13:21.757Z,11.00
2023-02-24T02:16:01.107Z,10.69
2023-02-24T02:18:38.676Z,10.32
2023-02-24T02:21:36.611Z,10.71
2023-02-24T02:24:19.752Z,10.83
2023-02-24T02:27:27.765Z,11.33
2023-02-24T02:30:25.163Z,10.90
2023-02-24T02:33:27.919Z,10.79
2023-02-24T02:36:04.336Z,10.63
2023-02-24T02:38:43.231Z,11.05
2023-02-24T02:41:20.148Z,10.79
2023-02-24T02:43:52.761Z,10.75
2023-02-24T02:46:34.982Z,10.50
2023-02-24T02:49:17.086Z,10.50
2023-02-24T02:51:53.414Z,10.57
2023-02-24T02:54:30.008Z,10.93
2023-02-24T02:57:03.727Z,10.28
2023-02-24T02:59:36.535Z,10.63
2023-02-24T03:02:15.149Z,10.54
2023-02-24T03:04:51.202Z,10.41
2023-02-24T03:07:24.483Z,10.16
2023-02-24T03:09:58.152Z,10.33
2023-02-24T03:12:30.853Z,9.98
2023-02-24T03:15:02.145Z,9.76
2023-02-24T03:17:37.202Z,9.60
2023-02-24T03:20:15.823Z,9.43
2023-02-24T03:22:50.353Z,10.00
2023-02-24T03:25:24.317Z,9.81
2023-02-24T03:27:57.055Z,9.58
2023-02-24T03:30:33.281Z,9.62
2023-02-24T03:33:06.428Z,9.87
2023-02-24T03:35:40.234Z,9.73
2023-02-24T03:38:11.285Z,9.95
2023-02-24T03:40:40.340Z,9.60
2023-02-24T03:43:17.020Z,9.69
2023-02-24T03:45:46.719Z,10.25
2023-02-24T03:48:15.729Z,9.92
2023-02-24T03:50:46.793Z,10.26
2023-02-24T03:53:43.047Z,10.30
2023-02-24T03:56:26.702Z,10.32
2023-02-24T03:59:12.877Z,9.94
2023-02-24T04:01:51.908Z,10.45
2023-02-24T04:04:31.755Z,10.35
2023-02-24T04:07:15.312Z,9.98
2023-02-24T04:09:50.371Z,10.05
2023-02-24T04:12:22.960Z,10.27
2023-02-24T04:14:59.474Z,10.16
2023-02-24T04:17:32.245Z,10.33
2023-02-24T04:20:09.201Z,10.39
2023-02-24T04:22:41.248Z,9.85
2023-02-24T04:25:13.941Z,9.76
2023-02-24T04:27:45.249Z,10.15
2023-02-24T04:30:18.234Z,10.10
2023-02-24T04:32:46.675Z,9.40
2023-02-24T04:35:17.977Z,9.63
2023-02-24T04:37:51.008Z,9.26
2023-02-24T04:40:23.204Z,9.43
2023-02-24T04:42:53.192Z,9.72
2023-02-24T04:45:22.772Z,9.23
2023-02-24T04:47:56.358Z,9.85
2023-02-24T04:50:26.722Z,9.94
2023-02-24T04:52:56.631Z,9.91
2023-02-24T04:55:29.458Z,9.91
2023-02-24T04:57:59.158Z,9.81
2023-02-24T05:00:35.278Z,9.81
2023-02-24T05:03:06.132Z,9.88
2023-02-24T05:05:36.764Z,10.08
2023-02-24T05:08:07.465Z,9.98
2023-02-24T05:10:40.301Z,9.67
2023-02-24T05:13:12.488Z,9.69
2023-02-24T05:15:42.648Z,10.32
2023-02-24T05:18:14.934Z,9.92
2023-02-24T05:21:02.229Z,9.91
2023-02-24T05:23:33.353Z,9.50
2023-02-24T05:26:08.555Z,9.57
2023-02-24T05:28:38.161Z,9.46
2023-02-24T05:31:08.576Z,9.77
2023-02-24T05:33:38.262Z,9.81
2023-02-24T05:36:08.786Z,9.54
2023-02-24T05:38:38.326Z,9.69
2023-02-24T05:41:14.992Z,9.80
2023-02-24T05:43:44.705Z,9.89
2023-02-24T05:46:13.517Z,9.71
2023-02-24T05:48:41.874Z,9.66
2023-02-24T05:51:12.097Z,9.99
2023-02-24T05:53:42.513Z,9.58
2023-02-24T05:56:12.618Z,9.46
2023-02-24T05:58:40.757Z,9.30
2023-02-24T06:01:16.357Z,9.59
2023-02-24T06:03:47.944Z,9.18
2023-02-24T06:06:16.434Z,9.52
2023-02-24T06:08:49.935Z,9.23
2023-02-24T06:11:21.422Z,9.20
2023-02-24T06:13:49.813Z,9.30
2023-02-24T06:16:18.965Z,9.41
2023-02-24T06:18:50.951Z,9.03
2023-02-24T06:21:19.477Z,9.30
2023-02-24T06:23:51.026Z,9.42
2023-02-24T06:26:21.578Z,9.10
2023-02-24T06:28:54.068Z,9.17
2023-02-24T06:31:22.571Z,9.35
2023-02-24T06:33:53.389Z,9.09
2023-02-24T06:36:22.086Z,8.97
2023-02-24T06:38:52.507Z,9.18
2023-02-24T06:41:21.884Z,9.45
2023-02-24T06:43:50.458Z,9.40
2023-02-24T06:46:18.320Z,9.41
2023-02-24T06:48:48.122Z,9.57
2023-02-24T06:51:17.022Z,9.22
2023-02-24T06:53:45.476Z,9.25
2023-02-24T06:56:15.803Z,9.59
2023-02-24T06:58:46.680Z,9.54
2023-02-24T07:01:15.888Z,9.20
2023-02-24T07:04:00.244Z,9.41
2023-02-24T07:06:29.438Z,9.02
2023-02-24T07:08:59.359Z,9.31
2023-02-24T07:11:28.978Z,9.57
2023-02-24T07:13:59.432Z,9.40
2023-02-24T07:16:29.251Z,9.34
2023-02-24T07:18:58.478Z,9.60
2023-02-24T07:21:30.126Z,9.44
2023-02-24T07:23:59.428Z,9.01
2023-02-24T07:26:30.340Z,9.37
2023-02-24T07:28:59.865Z,9.26
2023-02-24T07:31:27.835Z,9.52
2023-02-24T07:33:57.559Z,9.36
2023-02-24T07:36:29.973Z,9.64
2023-02-24T07:39:01.562Z,9.60
2023-02-24T07:41:31.299Z,9.61
2023-02-24T07:44:03.166Z,9.61
2023-02-24T07:46:32.369Z,9.56
2023-02-24T07:49:00.206Z,9.81
2023-02-24T07:51:29.582Z,9.54
2023-02-24T07:53:59.838Z,9.67
2023-02-24T07:56:29.271Z,9.31
2023-02-24T07:59:02.579Z,9.88
2023-02-24T08:01:38.742Z,9.71
2023-02-24T08:04:09.045Z,9.48
2023-02-24T08:06:39.271Z,9.63
2023-02-24T08:09:17.392Z,9.80
2023-02-24T08:11:47.079Z,9.74
2023-02-24T08:14:16.924Z,9.82
2023-02-24T08:16:46.194Z,9.27
2023-02-24T08:19:20.154Z,9.44
2023-02-24T08:21:50.483Z,9.89
2023-02-24T08:24:20.750Z,9.95
2023-02-24T08:27:03.952Z,9.70
2023-02-24T08:29:40.091Z,9.95
2023-02-24T08:32:09.471Z,10.22
2023-02-24T08:34:44.291Z,10.13
2023-02-24T08:37:15.639Z,10.17
2023-02-24T08:39:44.156Z,9.79
2023-02-24T08:42:14.444Z,9.74
2023-02-24T08:44:46.700Z,9.77
2023-02-24T08:47:21.391Z,9.24
2023-02-24T08:49:49.789Z,9.18
2023-02-24T08:52:21.545Z,8.71
2023-02-24T08:54:50.877Z,9.37
2023-02-24T08:57:30.792Z,9.20
2023-02-24T09:00:06.806Z,8.89
2023-02-24T09:02:41.082Z,9.50
2023-02-24T09:05:14.357Z,8.97
2023-02-24T09:07:43.598Z,9.03
2023-02-24T09:10:21.364Z,8.96
2023-02-24T09:12:50.236Z,9.35
2023-02-24T09:15:25.672Z,9.15
2023-02-24T09:18:07.623Z,9.17
2023-02-24T09:20:53.515Z,9.43
2023-02-24T09:23:30.288Z,9.01
2023-02-24T09:25:58.913Z,9.01
2023-02-24T09:28:33.000Z,9.01
2023-02-24T09:31:05.195Z,8.62
2023-02-24T09:33:39.425Z,8.99
2023-02-24T09:36:13.198Z,8.58
2023-02-24T09:39:01.263Z,8.39
2023-02-24T09:41:34.456Z,8.65
2023-02-24T09:44:07.712Z,8.90
2023-02-24T09:46:54.271Z,8.69
2023-02-24T09:49:39.828Z,8.76
2023-02-24T09:52:17.341Z,9.28
2023-02-24T09:55:20.472Z,8.92
2023-02-24T09:58:08.315Z,8.95
2023-02-24T10:00:45.447Z,8.83
2023-02-24T10:03:30.171Z,8.72
2023-02-24T10:06:12.244Z,9.21
2023-02-24T10:08:46.584Z,8.88
2023-02-24T10:11:16.019Z,8.77
2023-02-24T10:13:53.103Z,8.75
2023-02-24T10:16:25.324Z,8.66
2023-02-24T10:19:11.760Z,8.56
2023-02-24T10:21:49.788Z,8.46
2023-02-24T10:24:29.332Z,8.04
2023-02-24T10:27:08.497Z,8.14
2023-02-24T10:29:55.468Z,8.26
2023-02-24T10:32:33.892Z,8.20
2023-02-24T10:35:03.780Z,8.32
2023-02-24T10:37:31.498Z,8.52
2023-02-24T10:40:09.393Z,8.98
2023-02-24T10:42:44.460Z,8.98
2023-02-24T10:45:19.409Z,9.23
2023-02-24T10:47:56.652Z,9.00
2023-02-24T10:50:32.106Z,9.34
2023-02-24T10:53:34.418Z,9.10
2023-02-24T10:56:23.760Z,9.11
2023-02-24T10:59:16.475Z,9.00
2023-02-24T11:01:55.085Z,8.70
2023-02-24T11:04:53.948Z,8.80
2023-02-24T11:07:33.690Z,8.93
2023-02-24T11:10:12.100Z,9.00
2023-02-24T11:13:09.370Z,9.22
2023-02-24T11:16:00.762Z,9.28
2023-02-24T11:18:30.359Z,9.04
2023-02-24T11:21:00.985Z,9.03
2023-02-24T11:23:34.897Z,9.07
2023-02-24T11:26:05.246Z,9.32
2023-02-24T11:29:00.643Z,9.18
2023-02-24T11:31:46.123Z,9.50
2023-02-24T11:34:24.375Z,8.95
2023-02-24T11:36:59.144Z,9.31
2023-02-24T11:39:50.447Z,8.95
2023-02-24T11:42:27.023Z,8.86
2023-02-24T11:45:00.371Z,8.93
2023-02-24T11:47:33.027Z,9.14
2023-02-24T11:50:24.712Z,8.84
2023-02-24T11:52:55.954Z,9.04
2023-02-24T11:55:34.947Z,9.27
2023-02-24T11:58:06.661Z,8.60
2023-02-24T12:00:38.316Z,8.91
2023-02-24T12:03:15.436Z,9.28
2023-02-24T12:05:49.848Z,8.79
2023-02-24T12:08:27.074Z,8.54
2023-02-24T12:11:03.785Z,8.72
2023-02-24T12:13:42.826Z,8.99
2023-02-24T12:16:16.849Z,9.30
2023-02-24T12:18:51.495Z,8.73
2023-02-24T12:21:25.156Z,8.87
2023-02-24T12:23:54.652Z,8.67
2023-02-24T12:26:30.877Z,8.72
2023-02-24T12:29:21.041Z,8.80
2023-02-24T12:31:57.402Z,8.31
2023-02-24T12:34:38.871Z,8.47
2023-02-24T12:37:32.415Z,8.42
2023-02-24T12:40:17.270Z,8.87
2023-02-24T12:42:57.435Z,8.69
2023-02-24T12:45:39.319Z,8.24
2023-02-24T12:48:19.107Z,8.39
2023-02-24T12:50:54.660Z,8.26
2023-02-24T12:53:24.779Z,8.09
2023-02-24T12:56:07.797Z,8.21
2023-02-24T12:58:39.861Z,8.33
2023-02-24T13:01:17.648Z,8.40
2023-02-24T13:04:01.101Z,8.37
2023-02-24T13:06:42.739Z,8.41
2023-02-24T13:09:22.715Z,8.47
2023-02-24T13:11:55.791Z,8.21
2023-02-24T13:14:31.881Z,8.75
2023-02-24T13:17:20.089Z,8.36
2023-02-24T13:19:49.403Z,8.44
2023-02-24T13:22:30.217Z,8.72
2023-02-24T13:25:02.816Z,8.74
2023-02-24T13:27:34.859Z,8.51
2023-02-24T13:30:24.635Z,8.53
2023-02-24T13:33:02.107Z,8.93
2023-02-24T13:35:33.847Z,8.71
2023-02-24T13:38:24.723Z,9.16
2023-02-24T13:40:53.339Z,9.39
2023-02-24T13:43:27.962Z,9.29
2023-02-24T13:46:00.522Z,8.33
2023-02-24T13:49:01.218Z,8.95
2023-02-24T13:51:54.149Z,9.03
2023-02-24T13:54:40.357Z,8.97
2023-02-24T13:57:38.555Z,9.47
2023-02-24T14:00:13.038Z,9.00
2023-02-24T14:02:44.640Z,9.21
2023-02-24T14:05:20.657Z,9.16
2023-02-24T14:07:51.402Z,9.31
2023-02-24T14:10:21.829Z,9.48
2023-02-24T14:12:51.409Z,9.37
2023-02-24T14:15:22.240Z,9.65
2023-02-24T14:17:58.469Z,9.59
2023-02-24T14:20:28.529Z,9.38
2023-02-24T14:22:59.064Z,9.49
2023-02-24T14:25:29.999Z,9.62
2023-02-24T14:28:01.743Z,9.55
2023-02-24T14:30:34.042Z,9.46
2023-02-24T14:33:04.873Z,9.71
2023-02-24T14:35:35.978Z,9.17
2023-02-24T14:38:05.045Z,9.57
2023-02-24T14:40:33.477Z,9.98
2023-02-24T14:43:03.793Z,9.48
2023-02-24T14:45:31.766Z,9.30
2023-02-24T14:47:59.676Z,9.56
2023-02-24T14:50:34.127Z,9.69
2023-02-24T14:53:06.600Z,8.69
2023-02-24T14:55:38.143Z,9.40
2023-02-24T14:58:14.936Z,9.65
2023-02-24T15:00:49.466Z,10.14
2023-02-24T15:03:24.134Z,10.47
2023-02-24T15:05:56.909Z,10.51
2023-02-24T15:08:33.344Z,10.41
2023-02-24T15:11:01.771Z,10.35
2023-02-24T15:13:37.666Z,10.59
2023-02-24T15:16:12.557Z,10.36
2023-02-24T15:18:41.327Z,10.52
2023-02-24T15:21:22.450Z,10.15
2023-02-24T15:23:50.763Z,10.25
2023-02-24T15:26:27.256Z,10.17
2023-02-24T15:29:00.819Z,10.03
2023-02-24T15:31:29.890Z,9.92
2023-02-24T15:34:00.306Z,9.75
2023-02-24T15:36:33.280Z,9.93
2023-02-24T15:39:04.515Z,10.59
2023-02-24T15:41:42.960Z,9.94
2023-02-24T15:44:25.785Z,9.89
2023-02-24T15:46:53.703Z,10.06
2023-02-24T15:49:21.640Z,10.00
2023-02-24T15:51:53.173Z,9.85
2023-02-24T15:54:30.849Z,9.97
2023-02-24T15:57:00.435Z,10.08
2023-02-24T15:59:31.213Z,10.16
2023-02-24T16:01:59.295Z,10.27
2023-02-24T16:04:27.840Z,9.91
2023-02-24T16:06:58.849Z,10.16
2023-02-24T16:09:33.524Z,10.35
2023-02-24T16:12:03.256Z,9.79
2023-02-24T16:14:31.118Z,10.17
2023-02-24T16:16:59.965Z,10.09
2023-02-24T16:19:27.847Z,9.84
2023-02-24T16:21:57.068Z,10.31
2023-02-24T16:24:24.852Z,10.00
2023-02-24T16:26:52.705Z,10.11
2023-02-24T16:29:20.582Z,10.03
2023-02-24T16:31:48.615Z,10.16
2023-02-24T16:34:16.970Z,10.16
2023-02-24T16:36:45.159Z,10.20
2023-02-24T16:39:15.067Z,10.45
2023-02-24T16:41:42.963Z,10.35
2023-02-24T16:44:11.347Z,9.85
2023-02-24T16:46:41.379Z,10.30
2023-02-24T16:49:14.475Z,10.40
2023-02-24T16:51:42.282Z,10.38
2023-02-24T16:54:10.491Z,10.44
2023-02-24T16:56:39.879Z,10.19
2023-02-24T16:59:07.865Z,10.18
2023-02-24T17:01:37.386Z,10.53
2023-02-24T17:04:09.862Z,10.43
2023-02-24T17:06:37.817Z,10.59
2023-02-24T17:09:05.812Z,10.88
2023-02-24T17:11:34.009Z,10.42
2023-02-24T17:14:03.202Z,10.59
2023-02-24T17:16:31.436Z,10.54
2023-02-24T17:18:59.461Z,10.29
2023-02-24T17:21:27.734Z,10.71
2023-02-24T17:23:55.591Z,10.49
2023-02-24T17:26:23.956Z,10.81
2023-02-24T17:28:51.973Z,10.54
2023-02-24T17:31:21.365Z,10.34
2023-02-24T17:33:49.413Z,10.66
2023-02-24T17:36:17.196Z,10.48
2023-02-24T17:38:45.042Z,10.39
2023-02-24T17:41:12.973Z,10.44
2023-02-24T17:43:40.920Z,10.58
2023-02-24T17:46:08.777Z,10.71
2023-02-24T17:48:38.035Z,10.42
2023-02-24T17:51:06.161Z,10.63
2023-02-24T17:53:33.974Z,9.96
2023-02-24T17:56:03.537Z,9.89
2023-02-24T17:58:31.834Z,10.49
2023-02-24T18:01:19.293Z,10.14
2023-02-24T18:03:48.506Z,10.34
2023-02-24T18:06:16.507Z,9.56
2023-02-24T18:08:44.357Z,10.05
2023-02-24T18:11:16.959Z,10.19
2023-02-24T18:13:45.142Z,10.26
2023-02-24T18:16:15.253Z,9.80
2023-02-24T18:18:43.195Z,10.26
2023-02-24T18:22:12.371Z,10.05
2023-02-24T18:24:41.595Z,9.97
2023-02-24T18:27:09.579Z,10.55
2023-02-24T18:29:37.555Z,10.41
2023-02-24T18:32:13.094Z,10.19
2023-02-24T18:34:43.148Z,10.58
2023-02-24T18:37:10.966Z,10.34
2023-02-24T18:39:39.332Z,9.64
2023-02-24T18:42:08.554Z,9.93
2023-02-24T18:44:36.600Z,10.23
2023-02-24T18:47:09.263Z,10.44
2023-02-24T18:49:37.470Z,10.12
2023-02-24T18:52:07.354Z,10.24
2023-02-24T18:54:35.601Z,10.12
2023-02-24T18:57:03.670Z,10.35
2023-02-24T18:59:33.251Z,9.79
2023-02-24T19:02:01.315Z,10.68
2023-02-24T19:04:29.205Z,10.50
2023-02-24T19:06:57.179Z,10.95
2023-02-24T19:09:25.255Z,10.38
2023-02-24T19:11:54.487Z,10.55
2023-02-24T19:14:23.409Z,10.57
2023-02-24T19:16:53.781Z,10.51
2023-02-24T19:19:22.845Z,10.49
2023-02-24T19:21:52.096Z,10.62
2023-02-24T19:24:20.133Z,9.89
2023-02-24T19:26:48.454Z,10.44
2023-02-24T19:29:17.503Z,10.40
2023-02-24T19:31:48.335Z,9.56
2023-02-24T19:34:20.605Z,9.32
2023-02-24T19:36:48.654Z,9.09
2023-02-24T19:39:18.418Z,9.44
2023-02-24T19:41:49.468Z,9.48
2023-02-24T19:44:17.838Z,9.50
2023-02-24T19:46:45.841Z,9.79
2023-02-24T19:49:13.633Z,9.84
2023-02-24T19:51:43.551Z,10.01
2023-02-24T19:54:13.735Z,10.40
2023-02-24T19:56:41.564Z,10.05
2023-02-24T19:59:09.793Z,9.50
2023-02-24T20:01:37.728Z,9.57
2023-02-24T20:04:06.049Z,9.75
2023-02-24T20:06:36.626Z,9.69
2023-02-24T20:09:08.386Z,9.26
2023-02-24T20:11:41.243Z,9.54
2023-02-24T20:14:12.035Z,9.54
2023-02-24T20:16:40.954Z,9.58
2023-02-24T20:19:11.437Z,10.14
2023-02-24T20:21:40.709Z,10.05
2023-02-24T20:24:13.694Z,9.63
2023-02-24T20:27:06.665Z,9.71
2023-02-24T20:29:41.946Z,9.78
2023-02-24T20:32:10.373Z,9.88
2023-02-24T20:34:39.648Z,10.20
2023-02-24T20:37:08.353Z,10.13
2023-02-24T20:39:42.728Z,10.21
2023-02-24T20:42:13.764Z,10.20
2023-02-24T20:44:43.278Z,10.19
2023-02-24T20:47:11.860Z,10.16
2023-02-24T20:49:41.526Z,10.43
2023-02-24T20:52:10.467Z,10.23
2023-02-24T20:54:40.691Z,10.39
2023-02-24T20:57:09.825Z,10.06
2023-02-24T20:59:41.610Z,10.27
2023-02-24T21:02:13.431Z,10.17
2023-02-24T21:04:42.225Z,9.88
2023-02-24T21:07:11.086Z,10.31
2023-02-24T21:09:42.296Z,10.28
2023-02-24T21:12:10.745Z,10.12
2023-02-24T21:14:39.582Z,10.06
2023-02-24T21:17:08.386Z,10.31
2023-02-24T21:19:38.602Z,10.42
2023-02-24T21:22:07.951Z,10.25
2023-02-24T21:24:37.113Z,10.15
2023-02-24T21:27:08.343Z,10.26
2023-02-24T21:29:39.746Z,9.54
2023-02-24T21:32:08.485Z,10.00
2023-02-24T21:34:38.198Z,9.62
2023-02-24T21:37:07.598Z,9.22
2023-02-24T21:39:36.130Z,9.61
2023-02-24T21:42:05.023Z,9.74
2023-02-24T21:44:36.109Z,9.44
2023-02-24T21:47:05.000Z,8.26
2023-02-24T21:49:33.526Z,9.14
2023-02-24T21:52:02.646Z,9.92
2023-02-24T21:54:36.508Z,9.69
2023-02-24T21:57:06.550Z,8.50
2023-02-24T21:59:37.394Z,9.05
2023-02-24T22:02:07.080Z,9.50
2023-02-24T22:04:36.552Z,9.51
2023-02-24T22:07:05.278Z,8.56
2023-02-24T22:09:34.172Z,9.06
2023-02-24T22:12:02.982Z,9.57
2023-02-24T22:14:33.590Z,9.17
2023-02-24T22:17:04.228Z,9.55
2023-02-24T22:19:36.114Z,9.56
2023-02-24T22:22:05.316Z,9.48
2023-02-24T22:24:34.159Z,9.31
2023-02-24T22:27:03.054Z,9.74
2023-02-24T22:29:31.983Z,9.58
2023-02-24T22:32:00.662Z,9.42
2023-02-24T22:34:30.980Z,9.57
2023-02-24T22:36:59.654Z,9.16
2023-02-24T22:39:29.066Z,9.35
2023-02-24T22:41:59.025Z,9.68
2023-02-24T22:44:35.155Z,9.44
2023-02-24T22:47:11.344Z,9.82
2023-02-24T22:49:41.837Z,9.89
2023-02-24T22:52:11.850Z,9.73
2023-02-24T22:54:44.041Z,9.56
2023-02-24T22:57:18.157Z,9.65
2023-02-24T22:59:53.015Z,9.71
2023-02-24T23:02:21.126Z,9.46
2023-02-24T23:04:53.807Z,9.39
2023-02-24T23:07:22.487Z,9.76
2023-02-24T23:09:53.088Z,9.80
2023-02-24T23:12:22.407Z,9.58
2023-02-24T23:14:50.670Z,9.65
2023-02-24T23:17:18.591Z,9.72
2023-02-24T23:19:46.408Z,9.73
2023-02-24T23:22:16.233Z,10.30
2023-02-24T23:24:44.648Z,10.04
2023-02-24T23:27:12.487Z,9.58
2023-02-24T23:29:40.935Z,9.10
2023-02-24T23:32:08.924Z,9.53
2023-02-24T23:34:36.907Z,9.77
2023-02-24T23:37:07.369Z,10.00
2023-02-24T23:39:36.614Z,10.12
2023-02-24T23:42:04.831Z,10.44
2023-02-24T23:44:32.702Z,9.57
2023-02-24T23:47:01.197Z,10.17
2023-02-24T23:49:42.407Z,10.17
2023-02-24T23:52:14.107Z,9.61
2023-02-24T23:54:43.504Z,9.81
2023-02-24T23:57:11.487Z,9.99
2023-02-24T23:59:39.567Z,9.54
